Time;durP1;ratioP1;P1;durP2;ratioP2;P2;SDS_P1;SDS_P2;PMS_P1;PMS_P2;Temp;Humidity;BMP_temperature;BMP_pressure;BME280_temperature;BME280_humidity;BME280_pressure;Samples;Min_cycle;Max_cycle;Signal;HPM_P1;HPM_P2
2021/08/31 00:01:10;;;;;;;7.03;6.20;;;;;;;11.88;85.52;100119.56;1351966;91;22279;-87
2021/08/31 00:03:37;;;;;;;6.10;5.50;;;;;;;11.88;85.39;100120.03;1352246;91;21318;-87
2021/08/31 00:06:04;;;;;;;6.90;5.47;;;;;;;11.85;85.52;100119.00;1352533;91;21265;-87
2021/08/31 00:08:32;;;;;;;6.20;5.60;;;;;;;11.83;85.42;100118.36;1352406;91;21444;-87
2021/08/31 00:10:59;;;;;;;6.37;5.30;;;;;;;11.78;85.32;100112.70;1343566;92;22233;-87
2021/08/31 00:13:27;;;;;;;6.70;5.63;;;;;;;11.78;85.28;100121.98;1352344;91;21362;-87
2021/08/31 00:15:54;;;;;;;7.90;5.67;;;;;;;11.77;85.16;100122.48;1344283;92;21523;-87
2021/08/31 00:18:21;;;;;;;5.73;5.23;;;;;;;11.73;85.10;100127.77;1352304;91;21414;-87
2021/08/31 00:20:48;;;;;;;5.63;5.13;;;;;;;11.70;85.03;100127.59;1352064;91;21362;-87
2021/08/31 00:23:15;;;;;;;7.73;6.53;;;;;;;11.66;84.93;100128.09;1352681;91;21354;-86
2021/08/31 00:25:42;;;;;;;9.83;6.87;;;;;;;11.62;85.20;100139.99;1352482;91;21398;-86
2021/08/31 00:28:09;;;;;;;8.07;6.20;;;;;;;11.61;85.21;100136.52;1352352;91;22361;-86
2021/08/31 00:30:37;;;;;;;7.07;5.97;;;;;;;11.59;85.34;100143.79;1352528;91;21339;-86
2021/08/31 00:33:04;;;;;;;12.13;6.73;;;;;;;11.57;85.15;100143.64;1352083;91;21384;-86
2021/08/31 00:35:31;;;;;;;7.37;6.67;;;;;;;11.55;85.37;100136.34;1352471;91;22271;-87
2021/08/31 00:37:58;;;;;;;7.20;6.50;;;;;;;11.52;85.40;100135.66;1367163;90;21347;-86
2021/08/31 00:40:25;;;;;;;9.00;6.80;;;;;;;11.50;86.11;100134.98;1368073;90;21527;-86
2021/08/31 00:42:52;;;;;;;9.20;6.27;;;;;;;11.44;87.34;100133.48;1368108;90;21458;-86
2021/08/31 00:45:19;;;;;;;7.37;6.13;;;;;;;11.39;87.99;100126.50;1367908;90;21444;-86
2021/08/31 00:47:46;;;;;;;9.93;6.50;;;;;;;11.37;87.41;100123.20;1340304;93;22174;-86
2021/08/31 00:50:17;;;;;;;8.30;6.00;;;;;;;11.31;88.28;100123.34;1367905;90;21339;-86
2021/08/31 00:52:44;;;;;;;9.78;7.78;;;;;;;11.30;87.58;100122.98;1368272;90;21332;-86
2021/08/31 00:55:12;;;;;;;12.03;6.60;;;;;;;11.30;87.28;100129.11;1368210;90;22219;-86
2021/08/31 00:57:40;;;;;;;10.03;7.97;;;;;;;11.26;87.58;100126.46;1368408;90;21333;-86
2021/08/31 01:00:13;;;;;;;11.90;6.30;;;;;;;11.23;88.12;100137.38;1367864;90;22350;-87
2021/08/31 01:02:43;;;;;;;7.47;6.07;;;;;;;11.21;87.75;100132.72;1368584;90;21368;-87
2021/08/31 01:05:10;;;;;;;9.37;6.63;;;;;;;11.23;87.55;100145.83;1368391;90;22334;-87
2021/08/31 01:07:38;;;;;;;9.87;6.17;;;;;;;11.23;87.37;100140.52;1368180;90;22485;-86
2021/08/31 01:10:09;;;;;;;7.47;6.00;;;;;;;11.22;86.85;100150.30;1368267;90;21439;-87
2021/08/31 01:12:37;;;;;;;7.20;6.17;;;;;;;11.20;86.39;100146.97;1368185;90;21318;-88
2021/08/31 01:15:06;;;;;;;9.90;6.93;;;;;;;11.20;86.30;100145.64;1355399;91;21325;-86
2021/08/31 01:17:34;;;;;;;6.73;5.30;;;;;;;11.21;86.19;100147.80;1368054;90;21472;-86
2021/08/31 01:20:03;;;;;;;7.10;5.97;;;;;;;11.21;86.05;100147.80;1369416;90;22242;-86
2021/08/31 01:22:31;;;;;;;11.07;6.73;;;;;;;11.18;86.19;100152.08;1368076;90;21347;-86
2021/08/31 01:25:00;;;;;;;8.63;5.97;;;;;;;11.17;86.10;100155.73;1352044;92;21339;-86
2021/08/31 01:27:28;;;;;;;10.63;6.80;;;;;;;11.17;86.15;100157.05;1368119;90;21354;-86
2021/08/31 01:30:00;;;;;;;8.00;5.90;;;;;;;11.16;86.00;100148.25;1370850;90;21299;-86
2021/08/31 01:32:27;;;;;;;6.63;5.93;;;;;;;11.20;86.03;100149.61;1371450;90;22253;-86
2021/08/31 01:34:55;;;;;;;7.73;6.07;;;;;;;11.27;86.20;100153.27;1372080;90;21435;-86
2021/08/31 01:37:22;;;;;;;7.13;6.43;;;;;;;11.37;86.14;100149.70;1372812;89;21510;-86
2021/08/31 01:39:49;;;;;;;8.60;7.43;;;;;;;11.37;85.75;100152.34;1372595;90;21244;-85
2021/08/31 01:42:16;;;;;;;7.10;6.40;;;;;;;11.36;85.84;100154.64;1373406;90;21340;-86
2021/08/31 01:44:43;;;;;;;8.17;7.33;;;;;;;11.40;85.95;100152.02;1372531;90;21336;-85
2021/08/31 01:47:11;;;;;;;11.47;7.43;;;;;;;11.43;85.98;100145.91;1373528;90;21280;-85
2021/08/31 01:49:38;;;;;;;7.30;6.20;;;;;;;11.46;85.94;100146.08;1373025;90;22309;-85
2021/08/31 01:52:06;;;;;;;6.90;6.20;;;;;;;11.51;85.81;100147.77;1372696;90;21319;-86
2021/08/31 01:54:33;;;;;;;6.80;6.10;;;;;;;11.58;85.90;100147.44;1372936;90;22428;-86
2021/08/31 01:57:00;;;;;;;8.23;7.30;;;;;;;11.64;85.72;100145.47;1372704;90;21471;-87
2021/08/31 01:59:27;;;;;;;11.00;7.33;;;;;;;11.66;85.52;100142.17;1372933;90;21274;-88
2021/08/31 02:01:55;;;;;;;9.30;7.33;;;;;;;11.65;85.48;100139.20;1372989;89;22205;-88
2021/08/31 02:04:22;;;;;;;7.80;7.10;;;;;;;11.62;85.62;100139.49;1372467;90;21200;-88
2021/08/31 02:06:49;;;;;;;8.00;7.13;;;;;;;11.62;85.64;100132.04;1372828;89;21250;-88
2021/08/31 02:09:16;;;;;;;9.20;7.87;;;;;;;11.63;85.97;100137.70;1372525;90;22738;-89
2021/08/31 02:11:43;;;;;;;14.07;8.47;;;;;;;11.64;86.03;100135.37;1372688;90;21304;-90
2021/08/31 02:14:10;;;;;;;8.43;7.63;;;;;;;11.67;86.06;100138.52;1370713;90;21216;-88
2021/08/31 02:16:39;;;;;;;9.83;8.80;;;;;;;11.69;86.33;100133.89;1358197;91;21324;-89
2021/08/31 02:19:06;;;;;;;11.73;8.70;;;;;;;11.73;86.31;100130.41;1372829;90;22261;-90
2021/08/31 02:21:34;;;;;;;11.60;8.03;;;;;;;11.74;86.43;100136.07;1372496;90;21215;-89
2021/08/31 02:24:01;;;;;;;9.87;8.20;;;;;;;11.78;86.55;100136.56;1372497;90;21229;-89
2021/08/31 02:26:31;;;;;;;9.73;8.70;;;;;;;11.81;86.53;100136.24;1372413;90;22588;-89
2021/08/31 02:28:57;;;;;;;10.37;8.20;;;;;;;11.81;86.51;100137.56;1372652;90;21222;-89
2021/08/31 02:31:24;;;;;;;9.93;8.30;;;;;;;11.80;86.49;100128.78;1350535;91;21222;-88
2021/08/31 02:33:51;;;;;;;8.67;6.97;;;;;;;11.83;86.32;100131.61;1372816;90;21244;-89
2021/08/31 02:36:18;;;;;;;15.50;8.53;;;;;;;11.84;86.36;100131.44;1373132;89;21236;-88
2021/08/31 02:38:45;;;;;;;9.60;8.67;;;;;;;11.85;86.35;100129.14;1356873;90;22311;-88
2021/08/31 02:41:13;;;;;;;10.43;8.50;;;;;;;11.87;86.36;100125.01;1356073;91;22218;-89
2021/08/31 02:43:40;;;;;;;10.60;8.43;;;;;;;11.87;86.24;100119.20;1336371;93;22812;-88
2021/08/31 02:46:07;;;;;;;9.77;8.10;;;;;;;11.87;86.10;100121.03;1355241;91;21239;-88
2021/08/31 02:48:34;;;;;;;10.83;8.07;;;;;;;11.87;86.09;100115.73;1366134;91;21393;-89
2021/08/31 02:51:01;;;;;;;16.50;8.10;;;;;;;11.87;85.99;100119.70;1354865;91;21514;-88
2021/08/31 02:53:29;;;;;;;10.63;8.53;;;;;;;11.86;86.04;100118.06;1355755;91;21305;-89
2021/08/31 02:55:56;;;;;;;10.83;8.23;;;;;;;11.87;86.16;100121.03;1355780;90;21416;-88
2021/08/31 02:58:23;;;;;;;10.97;8.37;;;;;;;11.88;86.15;100125.33;1355473;91;21358;-90
2021/08/31 03:01:04;;;;;;;13.43;9.77;;;;;;;11.86;86.25;100121.53;1355376;91;21365;-88
2021/08/31 03:03:22;;;;;;;11.60;8.60;;;;;;;11.83;86.73;100126.31;1354260;92;21431;-89
2021/08/31 03:05:49;;;;;;;14.30;8.73;;;;;;;11.82;86.50;100118.00;1355881;91;21298;-88
2021/08/31 03:08:16;;;;;;;13.77;9.57;;;;;;;11.81;86.54;100123.81;1355646;91;21283;-86
2021/08/31 03:10:43;;;;;;;12.03;9.27;;;;;;;11.79;87.20;100122.31;1356186;91;21454;-86
2021/08/31 03:13:10;;;;;;;12.70;8.13;;;;;;;11.78;87.33;100128.61;1355643;91;21283;-86
2021/08/31 03:15:38;;;;;;;10.37;8.30;;;;;;;11.75;87.53;100125.28;1355533;91;22140;-86
2021/08/31 03:18:05;;;;;;;11.33;9.00;;;;;;;11.72;87.72;100130.91;1355725;91;21364;-86
2021/08/31 03:20:32;;;;;;;13.17;8.47;;;;;;;11.70;88.36;100126.27;1355495;91;21290;-86
2021/08/31 03:22:59;;;;;;;9.57;8.57;;;;;;;11.67;88.49;100125.27;1355558;91;22319;-86
2021/08/31 03:25:26;;;;;;;11.50;8.90;;;;;;;11.66;88.78;100126.27;1356174;91;21422;-87
2021/08/31 03:27:54;;;;;;;12.70;8.73;;;;;;;11.66;88.65;100128.91;1355483;91;21291;-86
2021/08/31 03:30:21;;;;;;;10.50;9.40;;;;;;;11.65;88.83;100118.45;1355872;91;21609;-87
2021/08/31 03:32:48;;;;;;;18.90;9.30;;;;;;;11.64;88.88;100123.44;1355797;91;21365;-87
2021/08/31 03:35:15;;;;;;;9.67;8.10;;;;;;;11.63;88.87;100119.14;1355512;91;21305;-87
2021/08/31 03:37:43;;;;;;;10.80;8.63;;;;;;;11.64;88.58;100119.46;1341344;90;21399;-87
2021/08/31 03:40:11;;;;;;;13.80;8.83;;;;;;;11.61;88.90;100120.61;1356577;91;21310;-87
2021/08/31 03:42:38;;;;;;;10.63;7.97;;;;;;;11.62;88.55;100118.28;1339545;92;21333;-86
2021/08/31 03:45:06;;;;;;;13.63;9.50;;;;;;;11.63;88.53;100115.98;1336242;93;21305;-86
2021/08/31 03:47:34;;;;;;;12.63;9.37;;;;;;;11.66;88.41;100111.69;1355555;91;21290;-86
2021/08/31 03:50:01;;;;;;;12.67;8.83;;;;;;;11.65;88.42;100114.48;1356700;91;21262;-86
2021/08/31 03:52:28;;;;;;;10.57;9.47;;;;;;;11.64;88.33;100118.96;1355390;91;22204;-86
2021/08/31 03:54:56;;;;;;;13.07;10.40;;;;;;;11.65;88.09;100114.02;1376334;89;21463;-86
2021/08/31 03:57:23;;;;;;;13.27;9.40;;;;;;;11.66;88.09;100118.81;1376704;89;21240;-87
2021/08/31 03:59:50;;;;;;;18.07;10.73;;;;;;;11.66;87.94;100115.66;1376541;89;21535;-87
2021/08/31 04:02:17;;;;;;;18.17;10.83;;;;;;;11.66;87.83;100115.66;1376661;89;21251;-86
2021/08/31 04:04:44;;;;;;;12.07;8.60;;;;;;;11.68;87.72;100109.71;1377034;89;21317;-86
2021/08/31 04:07:11;;;;;;;12.07;8.77;;;;;;;11.70;87.73;100111.68;1376904;89;21464;-86
2021/08/31 04:09:38;;;;;;;13.57;10.27;;;;;;;11.71;87.58;100110.71;1376159;89;22077;-86
2021/08/31 04:12:06;;;;;;;13.27;10.77;;;;;;;11.71;87.73;100121.81;1357524;91;21228;-86
2021/08/31 04:14:34;;;;;;;11.90;8.97;;;;;;;11.68;87.50;100121.64;1375297;89;21203;-86
2021/08/31 04:17:01;;;;;;;14.00;9.57;;;;;;;11.69;87.33;100121.14;1371976;90;21328;-87
2021/08/31 04:19:28;;;;;;;13.13;10.47;;;;;;;11.71;87.30;100123.97;1371960;89;21342;-87
2021/08/31 04:21:55;;;;;;;10.43;9.17;;;;;;;11.74;87.21;100128.94;1372132;90;22400;-87
2021/08/31 04:24:23;;;;;;;11.07;9.50;;;;;;;11.77;87.18;100133.09;1371812;89;21307;-87
2021/08/31 04:26:49;;;;;;;13.50;9.70;;;;;;;11.81;87.13;100132.27;1372041;90;21314;-86
2021/08/31 04:29:17;;;;;;;18.90;11.07;;;;;;;11.84;87.16;100128.78;1371797;89;22334;-86
2021/08/31 04:31:44;;;;;;;12.87;9.73;;;;;;;11.87;87.15;100131.14;1371794;90;21299;-86
2021/08/31 04:34:11;;;;;;;12.13;9.27;;;;;;;11.89;87.83;100128.34;1372214;90;21275;-86
2021/08/31 04:36:38;;;;;;;13.10;9.93;;;;;;;11.91;87.47;100137.80;1376479;89;22218;-86
2021/08/31 04:39:06;;;;;;;12.30;9.63;;;;;;;11.96;87.21;100130.66;1379256;89;21473;-86
2021/08/31 04:41:33;;;;;;;10.13;9.03;;;;;;;11.98;87.10;100145.09;1379996;89;22167;-86
2021/08/31 04:44:00;;;;;;;10.80;9.70;;;;;;;11.99;87.12;100143.59;1380322;89;21281;-86
2021/08/31 04:46:27;;;;;;;12.70;9.70;;;;;;;12.06;87.24;100145.94;1353407;90;22226;-87
2021/08/31 04:48:55;;;;;;;11.20;9.27;;;;;;;12.16;87.19;100143.11;1379981;89;21325;-87
2021/08/31 04:51:22;;;;;;;16.80;10.50;;;;;;;12.28;87.26;100141.78;1379290;89;21244;-88
2021/08/31 04:53:49;;;;;;;13.80;11.33;;;;;;;12.42;87.15;100146.42;1379567;89;22668;-87
2021/08/31 04:56:16;;;;;;;12.70;9.63;;;;;;;12.54;86.97;100142.94;1379171;89;21192;-87
2021/08/31 04:58:43;;;;;;;13.73;9.47;;;;;;;12.62;86.68;100138.95;1379988;89;21250;-87
2021/08/31 05:01:10;;;;;;;12.13;9.20;;;;;;;12.67;86.36;100129.67;1360857;89;21295;-88
2021/08/31 05:03:38;;;;;;;14.10;10.60;;;;;;;12.68;86.13;100142.77;1380257;89;21273;-88
2021/08/31 05:06:09;;;;;;;11.33;9.57;;;;;;;12.72;85.95;100138.79;1380453;89;22255;-88
2021/08/31 05:08:36;;;;;;;11.27;9.50;;;;;;;12.78;85.93;100138.62;1379371;91;21235;-90
2021/08/31 05:11:04;;;;;;;19.67;11.80;;;;;;;12.80;85.75;100143.23;1380020;89;21353;-90
2021/08/31 05:13:34;;;;;;;14.23;10.27;;;;;;;12.82;85.69;100140.75;1380111;89;21310;-85
2021/08/31 05:16:00;;;;;;;12.40;11.10;;;;;;;12.86;85.76;100140.75;1362033;91;21295;-85
2021/08/31 05:18:28;;;;;;;11.43;9.53;;;;;;;12.90;85.63;100146.55;1371781;89;21377;-85
2021/08/31 05:20:56;;;;;;;13.87;10.60;;;;;;;12.98;85.73;100150.52;1379636;89;21221;-86
2021/08/31 05:23:23;;;;;;;12.23;10.57;;;;;;;13.05;86.14;100140.03;1380355;89;22174;-85
2021/08/31 05:25:50;;;;;;;14.17;11.90;;;;;;;13.14;85.69;100150.13;1380173;89;21421;-86
2021/08/31 05:28:17;;;;;;;14.13;10.90;;;;;;;13.22;85.62;100149.61;1380048;89;21311;-85
2021/08/31 05:30:44;;;;;;;13.50;10.10;;;;;;;13.30;85.51;100142.15;1380073;89;21376;-86
2021/08/31 05:33:11;;;;;;;11.53;10.13;;;;;;;13.38;85.38;100144.78;1363120;91;21199;-86
2021/08/31 05:35:38;;;;;;;12.20;10.90;;;;;;;13.47;85.28;100146.39;1380002;89;21554;-85
2021/08/31 05:38:05;;;;;;;15.50;10.27;;;;;;;13.53;85.08;100145.70;1356396;91;21401;-86
2021/08/31 05:40:32;;;;;;;12.07;10.80;;;;;;;13.59;84.88;100153.98;1322454;94;21273;-85
2021/08/31 05:43:00;;;;;;;17.73;11.73;;;;;;;13.62;84.63;100146.98;1356255;91;21298;-85
2021/08/31 05:45:28;;;;;;;13.30;10.93;;;;;;;13.71;84.79;100157.91;1356486;91;22155;-85
2021/08/31 05:47:56;;;;;;;14.37;10.97;;;;;;;13.80;84.82;100147.54;1356038;91;21306;-85
2021/08/31 05:50:23;;;;;;;17.00;12.10;;;;;;;13.92;84.90;100149.30;1356027;91;21268;-85
2021/08/31 05:52:50;;;;;;;18.67;10.50;;;;;;;14.05;84.82;100155.37;1356675;91;22332;-85
2021/08/31 05:55:17;;;;;;;13.70;11.27;;;;;;;14.12;84.04;100146.49;1356275;91;21336;-85
2021/08/31 05:57:45;;;;;;;15.27;11.53;;;;;;;14.21;83.66;100151.25;1356016;91;21320;-85
2021/08/31 06:00:13;;;;;;;13.27;11.87;;;;;;;14.31;83.38;100156.36;1356854;91;21343;-85
2021/08/31 06:02:43;;;;;;;14.17;11.10;;;;;;;14.40;82.85;100152.61;1336352;93;21288;-85
2021/08/31 06:05:11;;;;;;;13.97;11.33;;;;;;;14.50;82.67;100155.02;1356147;91;21327;-85
2021/08/31 06:07:41;;;;;;;14.63;12.07;;;;;;;14.60;82.24;100159.63;1355871;91;21364;-84
2021/08/31 06:10:10;;;;;;;15.98;10.90;;;;;;;14.72;82.14;100158.18;1354980;93;21328;-85
2021/08/31 06:12:37;;;;;;;12.97;11.60;;;;;;;14.84;81.66;100162.05;1335678;93;21229;-85
2021/08/31 06:15:05;;;;;;;13.30;11.90;;;;;;;14.94;81.43;100161.80;1355610;91;21254;-85
2021/08/31 06:17:33;;;;;;;13.60;12.20;;;;;;;15.05;80.78;100155.20;1335810;93;21331;-84
2021/08/31 06:20:00;;;;;;;14.03;12.53;;;;;;;15.10;80.62;100151.46;1355798;90;21290;-85
2021/08/31 06:22:27;;;;;;;15.60;12.00;;;;;;;15.18;80.31;100148.70;1355933;91;21290;-88
2021/08/31 06:24:54;;;;;;;17.60;12.47;;;;;;;15.29;80.32;100145.58;1356317;91;22274;-88
2021/08/31 06:27:21;;;;;;;13.67;12.17;;;;;;;15.41;79.98;100143.78;1356169;91;22229;-87
2021/08/31 06:29:48;;;;;;;13.97;11.87;;;;;;;15.52;79.91;100139.30;1356427;90;21335;-90
2021/08/31 06:32:15;;;;;;;14.87;13.23;;;;;;;15.66;79.57;100140.30;1356090;91;21253;-90
2021/08/31 06:34:42;;;;;;;14.07;12.43;;;;;;;15.77;78.71;100137.99;1356726;91;22243;-92
2021/08/31 06:37:10;;;;;;;20.93;12.27;;;;;;;15.91;78.65;100144.30;1356298;91;21305;-91
2021/08/31 06:39:37;;;;;;;14.30;12.30;;;;;;;16.05;77.78;100142.57;1357286;89;21372;-92
2021/08/31 06:42:04;;;;;;;14.13;12.27;;;;;;;16.19;78.21;100141.69;1356448;91;21394;-91
2021/08/31 06:44:32;;;;;;;13.40;12.00;;;;;;;16.36;77.02;100148.11;1336125;93;22228;-90
2021/08/31 06:46:59;;;;;;;13.73;12.33;;;;;;;16.47;77.04;100139.06;1356337;91;21306;-89
2021/08/31 06:49:26;;;;;;;15.80;11.70;;;;;;;16.59;76.50;100144.70;1356472;91;21276;-90
2021/08/31 06:51:53;;;;;;;12.17;10.80;;;;;;;16.74;75.89;100143.78;1340080;91;22357;-90
2021/08/31 06:54:20;;;;;;;11.90;10.63;;;;;;;16.83;75.49;100142.64;1355784;91;21380;-90
2021/08/31 06:56:47;;;;;;;11.70;10.50;;;;;;;16.97;75.16;100136.36;1342098;91;22415;-91
2021/08/31 06:59:14;;;;;;;12.70;11.40;;;;;;;17.05;73.55;100138.87;1356443;91;21283;-90
2021/08/31 07:01:41;;;;;;;15.98;11.20;;;;;;;17.13;73.46;100138.73;1355881;91;21358;-91
2021/08/31 07:04:09;;;;;;;11.23;9.23;;;;;;;17.24;73.27;100133.86;1356478;91;21509;-91
2021/08/31 07:06:36;;;;;;;10.35;9.13;;;;;;;17.32;72.68;100139.02;1356322;91;21554;-91
2021/08/31 07:09:04;;;;;;;13.67;9.53;;;;;;;17.36;71.96;100142.95;1356384;90;21365;-90
2021/08/31 07:11:34;;;;;;;10.20;9.18;;;;;;;17.44;71.48;100145.47;1343105;91;21372;-89
2021/08/31 07:14:01;;;;;;;12.80;9.05;;;;;;;17.54;71.76;100144.56;1356003;91;21268;-90
2021/08/31 07:16:28;;;;;;;22.27;10.25;;;;;;;17.71;71.88;100145.05;1356350;91;21246;-89
2021/08/31 07:18:58;;;;;;;12.58;9.10;;;;;;;17.83;71.24;100145.31;1356805;91;21313;-90
2021/08/31 07:21:26;;;;;;;10.32;9.23;;;;;;;17.90;70.50;100144.83;1356108;91;22294;-90
2021/08/31 07:23:55;;;;;;;10.30;8.40;;;;;;;17.94;69.22;100140.70;1356356;91;22082;-90
2021/08/31 07:26:22;;;;;;;11.45;8.30;;;;;;;18.01;69.16;100141.56;1356364;91;21431;-91
2021/08/31 07:28:49;;;;;;;10.98;8.48;;;;;;;18.13;69.27;100149.00;1356796;90;21291;-91
2021/08/31 07:31:17;;;;;;;7.47;6.47;;;;;;;18.21;67.94;100146.10;1356567;91;22288;-91
2021/08/31 07:33:44;;;;;;;9.18;8.18;;;;;;;18.27;67.44;100146.66;1336200;93;22259;-92
2021/08/31 07:36:12;;;;;;;8.33;7.22;;;;;;;18.30;66.85;100148.07;1356455;91;21239;-90
2021/08/31 07:38:39;;;;;;;7.97;6.15;;;;;;;18.40;66.62;100147.98;1356985;89;21394;-90
2021/08/31 07:41:06;;;;;;;8.28;7.42;;;;;;;18.53;66.40;100153.02;1356222;91;21305;-92
2021/08/31 07:43:33;;;;;;;6.67;5.90;;;;;;;18.53;65.16;100161.91;1356509;90;21409;-90
2021/08/31 07:46:00;;;;;;;9.15;6.90;;;;;;;18.68;66.09;100155.00;1342502;91;21305;-92
2021/08/31 07:48:27;;;;;;;6.65;5.92;;;;;;;18.88;65.49;100153.15;1336958;93;21317;-91
2021/08/31 07:50:54;;;;;;;7.70;6.05;;;;;;;19.02;63.13;100163.84;1356553;91;22745;-90
2021/08/31 07:53:21;;;;;;;10.45;6.50;;;;;;;19.12;62.82;100159.70;1356298;91;21378;-90
2021/08/31 07:55:49;;;;;;;6.10;5.50;;;;;;;19.18;63.22;100155.87;1356031;91;21365;-91
2021/08/31 07:58:16;;;;;;;9.28;5.28;;;;;;;19.30;62.81;100150.16;1356356;90;21254;-90
2021/08/31 08:00:43;;;;;;;10.72;6.17;;;;;;;19.33;62.35;100149.73;1356415;91;22679;-91
2021/08/31 08:03:10;;;;;;;7.30;5.67;;;;;;;19.41;62.32;100152.70;1356683;91;21232;-91
2021/08/31 08:05:38;;;;;;;6.53;5.65;;;;;;;19.38;60.23;100153.42;1356612;90;21275;-91
2021/08/31 08:08:05;;;;;;;5.67;5.05;;;;;;;19.55;61.76;100147.59;1332484;94;22074;-91
2021/08/31 08:10:33;;;;;;;6.53;5.28;;;;;;;19.63;61.47;100147.35;1356337;91;21291;-90
2021/08/31 08:13:00;;;;;;;8.93;5.22;;;;;;;19.70;59.99;100152.19;1356497;91;22134;-90
2021/08/31 08:15:27;;;;;;;8.18;5.30;;;;;;;19.71;60.25;100153.01;1356207;91;21284;-90
2021/08/31 08:17:54;;;;;;;7.53;4.87;;;;;;;19.80;60.53;100150.41;1356485;91;21328;-91
2021/08/31 08:20:21;;;;;;;8.78;5.40;;;;;;;19.91;59.30;100147.04;1356030;91;21364;-91
2021/08/31 08:22:49;;;;;;;5.17;4.03;;;;;;;20.02;58.89;100146.36;1356659;91;21313;-90
2021/08/31 08:25:16;;;;;;;6.20;4.15;;;;;;;20.14;58.46;100151.86;1356740;91;21350;-91
2021/08/31 08:27:44;;;;;;;5.53;4.45;;;;;;;20.27;58.05;100147.71;1356116;91;21328;-92
2021/08/31 08:30:12;;;;;;;5.45;4.95;;;;;;;20.44;58.06;100155.25;1356791;91;21327;-93
2021/08/31 08:32:39;;;;;;;9.40;4.65;;;;;;;20.54;58.19;100156.94;1322696;93;22190;-91
2021/08/31 08:35:10;;;;;;;12.75;4.28;;;;;;;20.56;57.38;100144.64;1355448;91;21600;-92
2021/08/31 08:37:37;;;;;;;6.28;4.60;;;;;;;20.59;57.24;100142.32;1336142;93;21354;-91
2021/08/31 08:40:06;;;;;;;4.40;3.67;;;;;;;20.84;56.90;100146.34;1361750;90;22307;-92
2021/08/31 08:42:33;;;;;;;6.12;3.42;;;;;;;20.86;55.71;100142.92;1365407;90;21287;-90
2021/08/31 08:45:00;;;;;;;6.50;2.98;;;;;;;20.83;54.88;100143.36;1365488;90;21296;-90
2021/08/31 08:47:28;;;;;;;4.80;4.17;;;;;;;20.92;54.09;100147.94;1365825;90;22174;-90
2021/08/31 08:49:55;;;;;;;4.45;3.52;;;;;;;21.05;55.08;100133.51;1365155;90;21288;-91
2021/08/31 08:52:22;;;;;;;4.60;4.00;;;;;;;21.13;54.73;100143.45;1365661;90;21302;-92
2021/08/31 08:54:49;;;;;;;5.05;3.08;;;;;;;21.14;54.13;100134.85;1366126;90;21332;-90
2021/08/31 08:57:19;;;;;;;8.78;4.45;;;;;;;21.17;54.11;100131.71;1365985;90;21228;-91
2021/08/31 08:59:49;;;;;;;4.72;4.30;;;;;;;21.27;54.50;100121.26;1364882;90;21532;-91
2021/08/31 09:02:38;;;;;;;5.03;2.75;;;;;;;21.35;53.89;100123.65;1375784;90;22337;-92
2021/08/31 09:05:10;;;;;;;4.35;3.95;;;;;;;21.50;53.08;100125.97;1348000;91;21252;-91
2021/08/31 09:07:40;;;;;;;6.10;4.22;;;;;;;21.46;53.72;100122.08;1348470;91;21281;-91
2021/08/31 09:10:22;;;;;;;5.47;3.95;;;;;;;21.58;53.45;100118.94;1352445;91;21481;-91
2021/08/31 09:12:54;;;;;;;13.80;5.10;;;;;;;21.61;53.12;100120.35;1352966;91;21325;-91
2021/08/31 09:15:38;;;;;;;21.60;3.58;;;;;;;21.75;52.49;100103.47;1366123;90;21498;-92
2021/08/31 09:18:11;;;;;;;5.62;4.80;;;;;;;21.88;51.62;100116.76;1365596;90;21475;-91
2021/08/31 09:20:47;;;;;;;5.62;4.83;;;;;;;22.03;52.38;100118.48;1365672;90;21622;-91
2021/08/31 09:23:22;;;;;;;9.95;3.95;;;;;;;22.05;52.37;100111.00;1364441;90;21339;-91
2021/08/31 09:25:57;;;;;;;6.20;3.90;;;;;;;22.18;52.66;100108.67;1366394;90;22233;-90
2021/08/31 09:28:31;;;;;;;6.85;3.90;;;;;;;22.08;52.33;100113.23;1364987;90;21473;-91
2021/08/31 09:31:17;;;;;;;5.47;4.25;;;;;;;22.03;52.36;100100.16;1365598;90;21302;-90
2021/08/31 09:33:48;;;;;;;7.65;3.42;;;;;;;22.05;51.02;100109.66;1363586;90;21325;-88
2021/08/31 09:36:19;;;;;;;6.42;3.62;;;;;;;22.15;51.53;100102.34;1352654;90;21398;-88
2021/08/31 09:39:06;;;;;;;13.60;3.65;;;;;;;22.20;51.45;100099.00;1365451;90;21272;-89
2021/08/31 09:41:46;;;;;;;9.78;2.90;;;;;;;22.04;51.72;100095.91;1368736;90;22558;-89
2021/08/31 09:44:24;;;;;;;7.55;2.20;;;;;;;22.24;51.06;100094.77;1370915;90;22779;-90
2021/08/31 09:47:01;;;;;;;2.80;2.20;;;;;;;22.26;49.53;100097.53;1368650;89;22235;-89
2021/08/31 09:49:37;;;;;;;5.08;2.05;;;;;;;22.33;48.80;100092.55;1365811;90;21221;-89
2021/08/31 09:52:14;;;;;;;2.92;2.00;;;;;;;22.07;47.04;100092.74;1348250;91;21421;-89
2021/08/31 09:54:48;;;;;;;3.12;2.35;;;;;;;22.04;47.96;100086.47;1371753;90;22353;-89
2021/08/31 09:57:37;;;;;;;6.67;3.10;;;;;;;22.24;48.21;100080.80;1356910;91;22720;-90
2021/08/31 10:00:14;;;;;;;3.30;2.33;;;;;;;22.32;48.67;100080.95;1356912;91;21328;-89
2021/08/31 10:02:47;;;;;;;3.55;2.77;;;;;;;22.39;47.42;100088.42;1371168;89;21325;-89
2021/08/31 10:05:11;;;;;;;3.30;2.87;;;;;;;22.71;47.85;100088.06;1370607;90;21415;-88
2021/08/31 10:07:41;;;;;;;6.72;2.90;;;;;;;22.76;47.67;100082.80;1371297;90;21422;-88
2021/08/31 10:10:08;;;;;;;4.12;3.45;;;;;;;22.80;48.33;100086.64;1371550;90;21288;-89
2021/08/31 10:12:37;;;;;;;5.45;3.50;;;;;;;22.64;47.82;100081.95;1371036;90;21389;-88
2021/08/31 10:15:06;;;;;;;6.05;2.75;;;;;;;22.50;48.76;100087.61;1371983;90;21443;-88
2021/08/31 10:17:33;;;;;;;2.87;2.23;;;;;;;22.47;49.64;100084.53;1372398;90;21267;-87
2021/08/31 10:20:03;;;;;;;2.80;2.00;;;;;;;22.48;49.30;100083.50;1357076;91;22154;-88
2021/08/31 10:22:31;;;;;;;1.97;1.67;;;;;;;22.61;47.74;100075.16;1371426;90;22198;-89
2021/08/31 10:24:59;;;;;;;5.97;2.87;;;;;;;22.62;47.28;100080.05;1370789;90;21380;-88
2021/08/31 10:27:41;;;;;;;5.15;3.15;;;;;;;22.96;47.61;100085.14;1371345;90;22190;-89
2021/08/31 10:30:26;;;;;;;2.72;2.08;;;;;;;23.03;47.75;100068.81;1370451;90;21362;-88
2021/08/31 10:33:00;;;;;;;2.42;2.20;;;;;;;23.27;46.86;100059.58;1353399;93;22780;-88
2021/08/31 10:35:36;;;;;;;4.97;2.02;;;;;;;23.66;43.73;100061.13;1350108;91;21414;-88
2021/08/31 10:38:08;;;;;;;7.20;1.82;;;;;;;24.02;43.17;100053.66;1371166;90;22285;-89
2021/08/31 10:40:42;;;;;;;4.55;1.80;;;;;;;24.12;42.26;100057.89;1371882;90;21561;-88
2021/08/31 10:43:12;;;;;;;4.00;2.12;;;;;;;24.01;41.65;100053.38;1372645;90;21325;-89
2021/08/31 10:45:43;;;;;;;4.17;1.95;;;;;;;24.03;40.54;100050.72;1373302;90;22242;-88
2021/08/31 10:48:27;;;;;;;1.98;1.77;;;;;;;24.07;41.15;100048.34;1372830;89;21320;-88
2021/08/31 10:51:05;;;;;;;1.98;1.37;;;;;;;24.27;40.36;100051.90;1373544;89;21281;-88
2021/08/31 10:53:42;;;;;;;2.87;1.98;;;;;;;24.50;40.99;100049.03;1357620;91;21221;-88
2021/08/31 10:56:29;;;;;;;4.62;1.77;;;;;;;24.33;40.63;100057.13;1373556;90;21280;-89
2021/08/31 10:59:05;;;;;;;2.45;1.77;;;;;;;24.07;40.21;100059.15;1372524;90;21295;-90
2021/08/31 11:01:42;;;;;;;5.03;1.75;;;;;;;23.70;40.64;100048.80;1359790;90;21317;-93
2021/08/31 11:04:33;;;;;;;9.90;2.50;;;;;;;23.33;41.03;100066.74;1359468;91;21156;-94
2021/08/31 11:07:06;;;;;;;5.55;1.87;;;;;;;23.12;41.41;100064.67;1389552;87;21592;-96
2021/08/31 11:09:35;;;;;;;6.42;1.67;;;;;;;23.05;42.48;100064.83;1396316;88;21472;-92
2021/08/31 11:12:07;;;;;;;2.42;1.65;;;;;;;22.96;42.89;100063.02;1396329;88;21395;-92
2021/08/31 11:14:50;;;;;;;2.55;1.95;;;;;;;23.01;43.08;100062.83;1395601;88;22277;-90
2021/08/31 11:17:38;;;;;;;2.98;1.60;;;;;;;23.01;43.03;100069.57;1395900;88;21273;-89
2021/08/31 11:20:24;;;;;;;4.90;1.90;;;;;;;23.18;42.90;100070.47;1395164;88;21301;-89
2021/08/31 11:23:10;;;;;;;6.55;1.60;;;;;;;23.29;42.39;100061.52;1383264;89;23018;-88
2021/08/31 11:25:52;;;;;;;2.15;1.67;;;;;;;23.31;42.76;100058.05;1383754;89;21384;-90
2021/08/31 11:28:24;;;;;;;4.28;1.42;;;;;;;23.20;41.83;100050.81;1383869;88;22138;-93